In Rescue
 
Open Full Screen Window  High Contrast Mode
Wind Gusting 19 knots
12
May 20, 2019 3:02 PM EDT
Weather Information
Wind Direction
  310 °
Wind Speed
  12 kt (14 mph)
Wind Gust
  19 kt (22 mph)
Altimeter
30.08 in
Visibility
10 SM
Temperature
11° C
52° F
Dewpoint
05° C
41° F
Humidity
67%
Sky Condition
Overcast @ 2,400 ft
MVFR

METAR KHAI 201902Z AUTO 31012G19KT 10SM OVC024 11/05 A3008 RMK AO2 T01060049

FAA Disclaimer: The data displayed is for advisory purposes only and is not to be used for flight planning or operations.